Pagrindinis puslapis
METAR-TAF:

METAR-TAF

Oro uostai :

Aghajari, Iranas

platuma: 30-46N, ilguma: 049-40E, Aukštis: 29 m

Dabartinis oras

Ataskaita buvo paskelbta 6 valandos ir 29 minutes, ne 17:00 UTC
Ramus vėjas
Temperatūra 31°C
Drėgmė 26%
Slėgis 1003 hPa
Matomumas 10 km arba daugiau
nėra debesų žemiau 1500 m ir nėra kamuolinių lietaus debesų

METAR: OIAG 231700Z 00000KT CAVOK 31/09 Q1003

Laikas: 02:59 (23:29 UTC)


TAF: trūkstamas

Orai ataskaitas ir orų prognozės (METAR, TAF).

turimą stotys yra geltonos ir raudonos taškus žemėlapyje.

Perkelti pele per norėdami pamatyti stoties vardą.

Tada spustelėkite, norėdami matyti oro stebėjimo ir prognozės.

Norėdami pakeisti žemėlapį: spustelėkite ant žalios mygtukų su juodo kryžiaus žemyn,; žalią mygtuką su brūkšneliu, jei norite nutolinti; arba žalių rodyklių gretimoms žemėlapius.


METAR-TAF: